Time;durP1;ratioP1;P1;durP2;ratioP2;P2;SDS_P1;SDS_P2;PMS_P1;PMS_P2;Temp;Humidity;BMP_temperature;BMP_pressure;BME280_temperature;BME280_humidity;BME280_pressure;Samples;Min_cycle;Max_cycle;Signal;HPM_P1;HPM_P2
2022/10/16 00:00:28;;;;;;;6.57;4.70;;;;;;;4.33;66.79;100709.28;6231678;22;20015;-75
2022/10/16 00:02:53;;;;;;;8.93;5.40;;;;;;;4.35;66.33;100707.47;6241705;22;20016;-76
2022/10/16 00:05:17;;;;;;;12.10;6.40;;;;;;;4.30;66.50;100704.94;6236443;22;20015;-76
2022/10/16 00:07:42;;;;;;;9.35;5.93;;;;;;;4.25;66.37;100708.63;6232889;22;20034;-75
2022/10/16 00:10:07;;;;;;;8.40;5.30;;;;;;;4.25;66.78;100708.63;6235287;22;20022;-77
2022/10/16 00:12:31;;;;;;;9.02;5.78;;;;;;;4.20;66.60;100711.41;6179654;22;20020;-77
2022/10/16 00:14:56;;;;;;;10.30;4.95;;;;;;;4.19;66.81;100716.72;6229884;22;20416;-75
2022/10/16 00:17:20;;;;;;;9.30;5.05;;;;;;;4.18;67.22;100717.63;6230172;22;20447;-74
2022/10/16 00:19:45;;;;;;;8.55;5.13;;;;;;;4.19;66.81;100717.56;6229042;22;20095;-77
2022/10/16 00:22:29;;;;;;;12.48;5.72;;;;;;;4.19;66.51;100725.50;6231467;22;20046;-76
2022/10/16 00:24:54;;;;;;;10.32;6.22;;;;;;;4.24;66.67;100722.75;6207253;22;20386;-81
2022/10/16 00:27:19;;;;;;;9.93;4.95;;;;;;;4.17;67.02;100727.34;6205562;22;20019;-78
2022/10/16 00:29:43;;;;;;;9.35;4.93;;;;;;;4.19;66.30;100724.63;6207454;22;20012;-80
2022/10/16 00:32:08;;;;;;;9.90;5.43;;;;;;;4.08;67.14;100731.97;6180291;22;20026;-78
2022/10/16 00:34:33;;;;;;;8.02;5.05;;;;;;;4.05;67.16;100721.53;6204721;22;20106;-73
2022/10/16 00:36:57;;;;;;;9.20;5.22;;;;;;;4.03;67.49;100718.06;6229307;22;20050;-71
2022/10/16 00:39:23;;;;;;;9.05;5.90;;;;;;;3.99;67.49;100726.06;6227415;22;20012;-70
2022/10/16 00:41:48;;;;;;;8.32;5.15;;;;;;;4.05;67.30;100732.09;6228718;22;20019;-70
2022/10/16 00:45:00;;;;;;;10.20;4.43;;;;;;;4.16;66.84;100730.88;6227475;22;20022;-71
2022/10/16 00:47:36;;;;;;;6.43;4.45;;;;;;;4.07;66.78;100730.25;6105979;23;20021;-71
2022/10/16 00:50:13;;;;;;;11.95;5.38;;;;;;;4.01;67.29;100729.53;6106350;23;20022;-70
2022/10/16 00:52:41;;;;;;;9.27;4.22;;;;;;;3.95;67.62;100729.66;6056657;23;20021;-71
2022/10/16 00:55:07;;;;;;;6.70;4.30;;;;;;;3.91;68.09;100735.09;6106253;23;20116;-72
2022/10/16 00:57:32;;;;;;;9.98;4.13;;;;;;;3.88;68.14;100730.75;6106150;23;20021;-70
2022/10/16 00:59:58;;;;;;;9.77;4.78;;;;;;;3.88;68.06;100738.66;6106339;23;20106;-71
2022/10/16 01:02:22;;;;;;;7.20;3.80;;;;;;;3.88;68.22;100730.75;6105671;23;20024;-70
2022/10/16 01:04:52;;;;;;;9.75;4.88;;;;;;;3.91;67.99;100749.16;6106341;23;20021;-71
2022/10/16 01:07:54;;;;;;;8.40;4.93;;;;;;;3.97;67.92;100734.91;6082091;23;20349;-75
2022/10/16 01:10:29;;;;;;;7.82;4.70;;;;;;;4.04;67.24;100740.91;6107101;23;20072;-70
2022/10/16 01:13:04;;;;;;;6.63;4.90;;;;;;;3.97;67.73;100738.41;6106961;23;20021;-73
2022/10/16 01:15:43;;;;;;;7.90;4.57;;;;;;;3.95;67.36;100742.03;6082946;23;20017;-72
2022/10/16 01:18:32;;;;;;;8.55;4.85;;;;;;;3.89;67.53;100736.91;6106123;23;20025;-73
2022/10/16 01:21:04;;;;;;;5.13;4.15;;;;;;;3.87;67.85;100744.84;6058244;23;20069;-71
2022/10/16 01:23:31;;;;;;;7.05;4.25;;;;;;;3.83;68.12;100743.22;6130966;22;20020;-72
2022/10/16 01:26:08;;;;;;;7.80;4.63;;;;;;;3.80;68.39;100742.44;6233580;22;20012;-71
2022/10/16 01:29:02;;;;;;;8.07;4.90;;;;;;;3.83;67.99;100751.13;6229205;22;20016;-71
2022/10/16 01:31:31;;;;;;;12.40;5.20;;;;;;;3.79;67.75;100749.47;6238395;22;20020;-72
2022/10/16 01:34:10;;;;;;;9.05;5.25;;;;;;;3.80;67.97;100747.69;6239645;22;20019;-75
2022/10/16 01:36:45;;;;;;;7.80;4.72;;;;;;;3.83;67.62;100759.03;6248353;22;20046;-79
2022/10/16 01:39:11;;;;;;;7.82;4.68;;;;;;;3.76;67.92;100762.72;6255559;22;20169;-79
2022/10/16 01:41:45;;;;;;;11.18;5.28;;;;;;;3.78;68.05;100760.91;6242013;22;20030;-77
2022/10/16 01:44:33;;;;;;;8.45;4.13;;;;;;;3.83;67.47;100761.69;6216530;22;20022;-78
2022/10/16 01:46:59;;;;;;;9.02;4.68;;;;;;;3.82;67.26;100754.66;6242874;22;20371;-76
2022/10/16 01:49:27;;;;;;;7.53;4.72;;;;;;;3.76;67.54;100760.09;6218359;22;20019;-77
2022/10/16 01:51:56;;;;;;;8.38;4.97;;;;;;;3.75;67.56;100763.63;6242828;22;20022;-78
2022/10/16 01:54:25;;;;;;;7.40;5.20;;;;;;;3.65;68.23;100759.50;6241251;22;20019;-77
2022/10/16 01:56:50;;;;;;;10.48;4.55;;;;;;;3.62;67.93;100764.84;6235365;22;20015;-76
2022/10/16 01:59:20;;;;;;;8.30;4.43;;;;;;;3.65;68.09;100764.78;6236034;22;20019;-78
2022/10/16 02:01:49;;;;;;;9.38;5.47;;;;;;;3.62;67.99;100752.53;6187793;22;20301;-73
2022/10/16 02:04:23;;;;;;;6.32;4.22;;;;;;;3.60;68.19;100756.13;6234036;22;20086;-73
2022/10/16 02:06:48;;;;;;;6.82;4.63;;;;;;;3.55;68.41;100763.28;6237154;22;20073;-71
2022/10/16 02:09:15;;;;;;;13.07;5.30;;;;;;;3.57;67.99;100764.09;6232857;22;20011;-71
2022/10/16 02:11:40;;;;;;;7.35;4.97;;;;;;;3.60;67.81;100766.69;6234465;22;20019;-72
2022/10/16 02:14:06;;;;;;;12.70;5.05;;;;;;;3.60;67.90;100766.69;6232465;22;20019;-68
2022/10/16 02:16:39;;;;;;;11.10;5.07;;;;;;;3.63;67.60;100761.31;6238543;22;20065;-69
2022/10/16 02:19:05;;;;;;;9.48;5.03;;;;;;;3.48;68.55;100759.94;6239433;22;20439;-68
2022/10/16 02:21:40;;;;;;;7.50;4.90;;;;;;;3.48;68.49;100754.66;6237010;22;20039;-70
2022/10/16 02:24:23;;;;;;;;;;;;;;;3.55;68.16;100764.13;6239079;22;20016;-71
2022/10/16 02:26:48;;;;;;;9.13;4.70;;;;;;;3.47;67.83;100758.19;6251227;22;19917;-68
2022/10/16 02:29:18;;;;;;;13.07;5.65;;;;;;;3.47;68.23;100758.19;6255217;22;20011;-68
2022/10/16 02:31:49;;;;;;;6.88;4.82;;;;;;;3.42;68.53;100767.13;6240950;22;20046;-69
2022/10/16 02:34:16;;;;;;;6.10;4.43;;;;;;;3.38;69.20;100765.47;6243149;22;20065;-70
2022/10/16 02:36:42;;;;;;;9.00;4.70;;;;;;;3.36;69.04;100769.91;6243786;22;20016;-68
2022/10/16 02:39:08;;;;;;;7.95;5.20;;;;;;;3.40;68.56;100766.28;6246002;22;20036;-70
2022/10/16 02:41:33;;;;;;;6.88;4.60;;;;;;;3.38;68.77;100768.09;6242986;22;20012;-71
2022/10/16 02:43:57;;;;;;;8.35;4.40;;;;;;;3.38;68.81;100765.47;6244792;22;20026;-70
2022/10/16 02:46:22;;;;;;;9.43;4.53;;;;;;;3.38;68.63;100776.03;6240679;22;20015;-69
2022/10/16 02:48:47;;;;;;;7.72;4.47;;;;;;;3.32;69.27;100777.00;6241936;22;20015;-68
2022/10/16 02:51:11;;;;;;;5.97;4.15;;;;;;;3.33;69.14;100775.25;6246121;22;20015;-67
2022/10/16 02:53:36;;;;;;;8.88;4.45;;;;;;;3.33;69.01;100775.25;6243156;22;20072;-65
2022/10/16 02:56:01;;;;;;;9.98;4.40;;;;;;;3.29;69.01;100770.03;6241129;22;20020;-68
2022/10/16 02:58:25;;;;;;;11.57;5.47;;;;;;;3.27;69.42;100777.09;6244212;22;20376;-66
2022/10/16 03:00:50;;;;;;;7.10;4.90;;;;;;;3.29;69.17;100777.06;6241580;22;20019;-66
2022/10/16 03:03:14;;;;;;;7.10;3.97;;;;;;;3.29;69.22;100777.06;6233916;22;20051;-65
2022/10/16 03:05:39;;;;;;;11.18;4.35;;;;;;;3.28;69.26;100783.25;6232462;22;20016;-65
2022/10/16 03:08:04;;;;;;;12.70;5.50;;;;;;;3.21;69.71;100784.31;6231424;22;20086;-66
2022/10/16 03:10:28;;;;;;;7.90;4.47;;;;;;;3.29;69.22;100784.97;6234118;22;20094;-65
2022/10/16 03:12:53;;;;;;;6.28;4.57;;;;;;;3.29;69.47;100783.22;6233497;22;20022;-65
2022/10/16 03:15:18;;;;;;;8.48;5.53;;;;;;;3.28;69.25;100781.47;6230904;22;20102;-66
2022/10/16 03:17:43;;;;;;;8.32;4.47;;;;;;;3.27;69.48;100785.00;6229163;22;20036;-65
2022/10/16 03:20:07;;;;;;;7.45;4.90;;;;;;;3.25;69.54;100792.13;6229953;22;20096;-67
2022/10/16 03:22:32;;;;;;;9.65;4.53;;;;;;;3.26;69.45;100788.59;6228047;22;20015;-66
2022/10/16 03:24:57;;;;;;;6.22;3.90;;;;;;;3.23;69.31;100793.91;6229532;22;20016;-67
2022/10/16 03:27:21;;;;;;;7.53;4.93;;;;;;;3.22;69.39;100797.44;6229671;22;20467;-67
2022/10/16 03:29:46;;;;;;;12.52;4.55;;;;;;;3.22;69.47;100791.31;6228021;22;20106;-67
2022/10/16 03:32:10;;;;;;;7.78;4.57;;;;;;;3.21;69.76;100798.34;6229692;22;20042;-66
2022/10/16 03:34:35;;;;;;;5.30;4.20;;;;;;;3.18;69.74;100798.41;6227397;22;20011;-66
2022/10/16 03:37:00;;;;;;;7.97;4.13;;;;;;;3.18;69.87;100798.41;6227466;22;20459;-67
2022/10/16 03:39:24;;;;;;;8.70;4.93;;;;;;;3.18;69.49;100808.09;6229714;22;20516;-67
2022/10/16 03:41:49;;;;;;;8.40;4.45;;;;;;;3.19;69.47;100800.16;6229197;22;20015;-67
2022/10/16 03:44:13;;;;;;;5.68;4.60;;;;;;;3.21;69.60;100800.97;6230112;22;20447;-66
2022/10/16 03:46:38;;;;;;;11.60;4.63;;;;;;;3.27;69.02;100805.25;6229608;22;20019;-66
2022/10/16 03:49:03;;;;;;;6.57;4.50;;;;;;;3.18;69.17;100802.81;6230089;22;20018;-72
2022/10/16 03:51:27;;;;;;;11.75;5.55;;;;;;;3.16;69.59;100802.84;6230870;22;20026;-70
2022/10/16 03:53:52;;;;;;;6.72;3.83;;;;;;;3.12;69.61;100793.28;6229937;22;20037;-71
2022/10/16 03:56:17;;;;;;;9.38;4.80;;;;;;;3.18;69.26;100808.09;6229568;22;20038;-72
2022/10/16 03:58:42;;;;;;;6.45;4.43;;;;;;;3.13;69.58;100804.69;6227274;22;20020;-71
2022/10/16 04:01:07;;;;;;;5.60;4.00;;;;;;;3.09;69.82;100803.03;6229899;22;20145;-71
2022/10/16 04:03:31;;;;;;;7.97;4.90;;;;;;;3.06;69.87;100813.63;6229673;22;20016;-71
2022/10/16 04:05:56;;;;;;;7.88;4.55;;;;;;;3.05;70.23;100809.28;6229295;22;20046;-72
2022/10/16 04:08:21;;;;;;;7.25;4.25;;;;;;;3.04;69.91;100803.16;6229999;22;20039;-72
2022/10/16 04:10:45;;;;;;;7.53;4.40;;;;;;;3.05;70.19;100807.50;6230675;22;20025;-71
2022/10/16 04:13:10;;;;;;;7.25;4.47;;;;;;;3.05;70.22;100804.84;6232363;22;20015;-69
2022/10/16 04:15:35;;;;;;;8.57;4.63;;;;;;;3.10;69.83;100800.34;6230964;22;20090;-70
2022/10/16 04:18:00;;;;;;;6.63;4.25;;;;;;;3.11;69.54;100812.63;6232437;22;20047;-70
2022/10/16 04:20:25;;;;;;;9.18;4.60;;;;;;;3.13;70.03;100805.56;6233296;22;20023;-70
2022/10/16 04:22:49;;;;;;;8.25;4.50;;;;;;;3.20;70.15;100804.50;6230093;22;20358;-70
2022/10/16 04:25:14;;;;;;;8.25;4.70;;;;;;;3.33;69.50;100810.38;6229544;22;20102;-70
2022/10/16 04:27:39;;;;;;;6.40;4.40;;;;;;;3.41;68.98;100810.19;6230206;22;20022;-70
2022/10/16 04:30:04;;;;;;;7.80;4.82;;;;;;;3.42;69.01;100817.19;6201410;22;20041;-69
2022/10/16 04:32:29;;;;;;;12.50;7.15;;;;;;;3.46;69.10;100817.09;6227072;22;20069;-69
2022/10/16 04:34:53;;;;;;;9.15;4.65;;;;;;;3.49;68.58;100817.03;6229419;22;20024;-70
2022/10/16 04:37:18;;;;;;;8.25;4.78;;;;;;;3.63;68.39;100814.91;6228040;22;20012;-70
2022/10/16 04:39:44;;;;;;;7.75;4.78;;;;;;;3.79;68.60;100815.41;6229748;22;20141;-67
2022/10/16 04:42:09;;;;;;;6.38;4.28;;;;;;;3.97;68.14;100819.34;6229828;22;20027;-67
2022/10/16 04:44:33;;;;;;;8.52;5.32;;;;;;;4.15;67.33;100823.28;6229678;22;20015;-65
2022/10/16 04:46:58;;;;;;;6.65;4.82;;;;;;;4.38;67.01;100815.63;6229788;22;20051;-67
2022/10/16 04:49:23;;;;;;;5.93;4.20;;;;;;;4.66;66.63;100821.84;6230720;22;20016;-66
2022/10/16 04:51:47;;;;;;;11.45;4.65;;;;;;;4.93;65.50;100817.53;6229827;22;20019;-66
2022/10/16 04:54:12;;;;;;;7.25;4.95;;;;;;;5.14;64.49;100818.66;6228591;22;20047;-67
2022/10/16 04:56:42;;;;;;;14.23;5.15;;;;;;;5.42;63.75;100822.19;6176625;22;20015;-67
2022/10/16 04:59:07;;;;;;;10.27;5.75;;;;;;;5.75;62.70;100822.91;6229257;22;20061;-67
2022/10/16 05:01:32;;;;;;;11.45;5.07;;;;;;;6.12;61.74;100822.53;6228841;22;20015;-66
2022/10/16 05:03:56;;;;;;;8.13;4.80;;;;;;;6.50;60.07;100818.53;6228997;22;20435;-66
2022/10/16 05:06:21;;;;;;;11.55;4.75;;;;;;;6.89;59.57;100816.19;6229132;22;20020;-67
2022/10/16 05:08:46;;;;;;;6.15;4.68;;;;;;;7.34;58.04;100827.75;6230617;22;20022;-66
2022/10/16 05:11:11;;;;;;;10.13;5.72;;;;;;;7.71;56.36;100821.84;6230280;22;20026;-65
2022/10/16 05:13:35;;;;;;;7.78;4.68;;;;;;;7.90;55.68;100813.03;6230848;22;20039;-67
2022/10/16 05:16:00;;;;;;;8.68;5.43;;;;;;;8.19;53.92;100809.16;6230186;22;20460;-66
2022/10/16 05:18:25;;;;;;;9.93;5.60;;;;;;;8.61;53.74;100810.88;6232441;22;20131;-65
2022/10/16 05:20:49;;;;;;;10.73;5.05;;;;;;;8.87;52.68;100817.69;6235938;22;20015;-65
2022/10/16 05:23:14;;;;;;;13.43;5.40;;;;;;;8.99;51.88;100815.34;6234693;22;20643;-65
2022/10/16 05:25:38;;;;;;;8.68;5.25;;;;;;;9.22;51.64;100824.91;6233557;22;20015;-66
2022/10/16 05:28:04;;;;;;;11.50;6.40;;;;;;;9.51;50.93;100827.97;6231025;22;20046;-68
2022/10/16 05:30:29;;;;;;;10.43;5.32;;;;;;;9.79;50.33;100826.56;6230367;22;20016;-69
2022/10/16 05:32:53;;;;;;;11.40;5.85;;;;;;;10.00;49.57;100826.44;6229155;22;20023;-67
2022/10/16 05:35:18;;;;;;;11.82;5.72;;;;;;;10.39;48.42;100820.88;6230426;22;20015;-67
2022/10/16 05:37:43;;;;;;;7.75;5.22;;;;;;;10.86;48.06;100821.03;6230622;22;20442;-69
2022/10/16 05:40:09;;;;;;;12.05;6.03;;;;;;;11.27;46.53;100829.47;6230433;22;20359;-66
2022/10/16 05:42:33;;;;;;;10.20;5.78;;;;;;;11.59;46.21;100823.19;6230320;22;20188;-67
2022/10/16 05:44:58;;;;;;;14.60;5.75;;;;;;;11.81;44.84;100828.19;6231187;22;20051;-68
2022/10/16 05:47:22;;;;;;;7.25;5.82;;;;;;;11.94;44.20;100823.00;6231035;22;20103;-68
2022/10/16 05:49:47;;;;;;;11.98;5.63;;;;;;;12.19;43.91;100822.41;6230566;22;20043;-69
2022/10/16 05:52:11;;;;;;;9.43;5.30;;;;;;;12.31;43.77;100827.88;6228692;22;20099;-68
2022/10/16 05:54:36;;;;;;;13.18;6.53;;;;;;;12.55;42.72;100833.56;6229279;22;20019;-67
2022/10/16 05:57:01;;;;;;;12.85;5.43;;;;;;;12.72;42.80;100830.72;6229217;22;20114;-67
2022/10/16 05:59:26;;;;;;;7.95;5.18;;;;;;;13.11;42.01;100834.53;6227386;22;20795;-67
2022/10/16 06:01:51;;;;;;;10.88;5.53;;;;;;;13.70;40.62;100829.88;6230243;22;20015;-68
2022/10/16 06:04:15;;;;;;;12.15;6.10;;;;;;;14.23;38.98;100841.50;6230451;22;20022;-67
2022/10/16 06:06:40;;;;;;;8.95;6.15;;;;;;;14.77;38.48;100836.91;6232571;22;20102;-67
2022/10/16 06:09:05;;;;;;;10.52;6.22;;;;;;;15.26;36.95;100835.13;6229616;22;20012;-68
2022/10/16 06:11:31;;;;;;;13.93;6.72;;;;;;;15.52;36.17;100838.63;6230429;22;20015;-66
2022/10/16 06:13:58;;;;;;;10.77;5.70;;;;;;;15.97;35.75;100841.63;6203157;22;20047;-65
2022/10/16 06:16:25;;;;;;;8.57;4.97;;;;;;;16.06;35.54;100843.59;6229712;22;20106;-67
2022/10/16 06:18:54;;;;;;;12.80;5.53;;;;;;;15.83;35.10;100845.31;6230211;22;20019;-66
2022/10/16 06:21:21;;;;;;;13.43;5.75;;;;;;;14.94;36.35;100841.09;6230408;22;20461;-66
2022/10/16 06:23:46;;;;;;;11.20;6.47;;;;;;;13.70;38.36;100849.50;6231328;22;20016;-66
2022/10/16 06:26:17;;;;;;;10.55;6.18;;;;;;;12.57;41.06;100839.69;6231978;22;20348;-66
2022/10/16 06:28:43;;;;;;;11.48;6.75;;;;;;;11.52;43.32;100847.63;6245743;22;20015;-67
2022/10/16 06:31:09;;;;;;;10.15;5.85;;;;;;;10.54;44.90;100847.63;6244981;22;20081;-66
2022/10/16 06:33:35;;;;;;;8.68;5.35;;;;;;;10.06;46.51;100850.06;6244397;22;20095;-67
2022/10/16 06:36:02;;;;;;;12.65;5.97;;;;;;;9.74;47.38;100852.53;6241327;22;20022;-66
2022/10/16 06:38:27;;;;;;;9.73;6.03;;;;;;;9.50;48.26;100866.16;6236043;22;20347;-67
2022/10/16 06:40:53;;;;;;;13.30;5.82;;;;;;;9.35;48.46;100863.31;6233033;22;20331;-67
2022/10/16 06:43:18;;;;;;;10.63;5.57;;;;;;;9.21;49.01;100857.75;6230727;22;20019;-67
2022/10/16 06:45:42;;;;;;;10.40;5.75;;;;;;;9.12;49.35;100852.00;6238239;22;20025;-69
2022/10/16 06:48:07;;;;;;;9.02;5.63;;;;;;;9.17;49.42;100858.84;6229691;22;20016;-67
2022/10/16 06:50:31;;;;;;;10.98;6.53;;;;;;;8.52;51.24;100861.81;6229291;22;20090;-68
2022/10/16 06:52:56;;;;;;;10.05;6.07;;;;;;;8.60;50.80;100863.19;6229777;22;20020;-68
2022/10/16 06:55:21;;;;;;;8.88;5.63;;;;;;;8.73;50.80;100860.84;6230501;22;20094;-69
2022/10/16 06:57:48;;;;;;;10.93;5.53;;;;;;;8.78;50.87;100865.97;6229481;22;20024;-69
2022/10/16 07:00:12;;;;;;;11.85;6.05;;;;;;;8.78;51.15;100869.50;6229705;22;20023;-68
2022/10/16 07:02:37;;;;;;;13.55;6.15;;;;;;;8.83;51.23;100863.97;6227976;22;20023;-69
2022/10/16 07:05:02;;;;;;;11.80;5.38;;;;;;;8.87;50.94;100863.75;6227778;22;20068;-67
2022/10/16 07:07:27;;;;;;;10.27;5.10;;;;;;;9.02;51.03;100855.09;6230492;22;20138;-68
2022/10/16 07:09:52;;;;;;;8.52;5.90;;;;;;;9.16;50.73;100862.41;6229298;22;20168;-68
2022/10/16 07:12:17;;;;;;;13.52;6.43;;;;;;;9.62;49.58;100858.47;6229348;22;20363;-69
2022/10/16 07:14:42;;;;;;;13.60;6.28;;;;;;;11.43;46.74;100854.34;6228250;22;20026;-68
2022/10/16 07:17:07;;;;;;;11.60;6.53;;;;;;;13.57;41.99;100859.28;6229498;22;20386;-69
2022/10/16 07:19:31;;;;;;;7.45;4.50;;;;;;;15.77;37.60;100861.06;6227836;22;20619;-66
2022/10/16 07:21:56;;;;;;;7.40;5.15;;;;;;;17.58;34.79;100855.91;6229059;22;20030;-68
2022/10/16 07:24:21;;;;;;;9.70;5.78;;;;;;;19.12;31.86;100854.50;6229015;22;20011;-67
2022/10/16 07:26:46;;;;;;;10.27;5.60;;;;;;;20.49;29.77;100857.41;6229224;22;20021;-68
2022/10/16 07:29:19;;;;;;;11.20;6.13;;;;;;;21.83;26.69;100855.25;6228557;22;20011;-68
2022/10/16 07:31:44;;;;;;;9.40;5.38;;;;;;;22.52;26.49;100865.47;6229349;22;20455;-67
2022/10/16 07:34:11;;;;;;;11.02;5.93;;;;;;;23.37;25.12;100862.84;6228690;22;20011;-67
2022/10/16 07:36:35;;;;;;;13.30;5.88;;;;;;;24.28;24.39;100867.63;6228122;22;20098;-66
2022/10/16 07:39:00;;;;;;;10.52;6.05;;;;;;;24.31;24.09;100870.88;6228998;22;20051;-67
2022/10/16 07:41:25;;;;;;;10.30;5.75;;;;;;;24.18;23.86;100857.72;6228943;22;20030;-67
2022/10/16 07:43:54;;;;;;;8.95;5.88;;;;;;;24.59;23.58;100869.56;6228911;22;20512;-68
2022/10/16 07:46:21;;;;;;;10.32;5.57;;;;;;;25.54;22.70;100870.56;6229651;22;20015;-67
2022/10/16 07:48:47;;;;;;;11.57;5.25;;;;;;;25.96;21.73;100869.41;6230097;22;20069;-68
2022/10/16 07:51:15;;;;;;;8.80;6.20;;;;;;;26.74;21.09;100867.31;6227305;22;20115;-68
2022/10/16 07:53:39;;;;;;;13.05;6.50;;;;;;;27.47;20.15;100865.72;6227377;22;20069;-67
2022/10/16 07:56:06;;;;;;;10.88;5.57;;;;;;;27.78;19.46;100871.84;6229341;22;20011;-69
2022/10/16 07:58:32;;;;;;;12.13;5.95;;;;;;;27.40;19.88;100868.38;6228833;22;20130;-69
2022/10/16 08:00:57;;;;;;;13.90;5.72;;;;;;;27.34;19.98;100871.00;6228326;22;20011;-68
2022/10/16 08:03:23;;;;;;;10.13;5.28;;;;;;;27.11;19.82;100877.41;6229737;22;20365;-68
2022/10/16 08:05:48;;;;;;;10.38;5.53;;;;;;;27.16;20.25;100870.53;6229158;22;20446;-67
2022/10/16 08:08:14;;;;;;;16.95;5.70;;;;;;;27.29;19.79;100865.25;6229201;22;20069;-67
2022/10/16 08:10:39;;;;;;;11.73;5.50;;;;;;;27.89;19.25;100870.50;6228652;22;20087;-67
2022/10/16 08:13:04;;;;;;;11.48;5.03;;;;;;;28.42;19.00;100871.16;6228934;22;20023;-67
2022/10/16 08:15:29;;;;;;;10.70;5.43;;;;;;;27.20;19.64;100861.75;6228471;22;20022;-67
2022/10/16 08:18:04;;;;;;;10.65;5.30;;;;;;;26.56;20.15;100860.44;6229276;22;20019;-68
2022/10/16 08:20:30;;;;;;;12.00;5.50;;;;;;;26.15;20.73;100868.94;6228808;22;20451;-69
2022/10/16 08:22:55;;;;;;;6.32;4.60;;;;;;;25.47;20.91;100858.66;6227246;22;20101;-70
2022/10/16 08:25:24;;;;;;;13.77;5.10;;;;;;;25.31;21.46;100862.28;6229612;22;20023;-68
2022/10/16 08:27:49;;;;;;;12.23;5.32;;;;;;;25.28;21.33;100861.81;6227845;22;20065;-68
2022/10/16 08:30:15;;;;;;;9.38;4.95;;;;;;;24.92;21.39;100854.03;6228367;22;20501;-69
2022/10/16 08:32:43;;;;;;;7.63;5.30;;;;;;;23.69;22.76;100855.91;6229535;22;20375;-69
2022/10/16 08:35:09;;;;;;;10.70;4.97;;;;;;;23.05;24.12;100862.69;6227527;22;20787;-69
2022/10/16 08:37:33;;;;;;;12.82;4.97;;;;;;;22.35;24.32;100856.31;6228215;22;20094;-68
2022/10/16 08:39:59;;;;;;;10.15;5.28;;;;;;;21.18;25.79;100847.16;6229422;22;20095;-68
2022/10/16 08:42:43;;;;;;;9.77;4.78;;;;;;;20.79;26.54;100849.09;6230528;22;20027;-67
2022/10/16 08:45:14;;;;;;;12.77;5.50;;;;;;;21.60;25.93;100862.94;6230442;22;20019;-68
2022/10/16 08:47:44;;;;;;;10.15;5.20;;;;;;;23.55;23.58;100846.47;6230948;22;20015;-67
2022/10/16 08:50:14;;;;;;;8.68;4.70;;;;;;;25.14;21.70;100849.72;6231002;22;20019;-68
2022/10/16 08:52:43;;;;;;;7.85;4.93;;;;;;;26.69;20.60;100858.81;6230800;22;20085;-69
2022/10/16 08:55:23;;;;;;;7.88;5.13;;;;;;;27.78;20.48;100851.81;6228412;22;20067;-68
2022/10/16 08:57:47;;;;;;;6.88;4.25;;;;;;;27.68;19.36;100849.38;6228129;22;20042;-67
2022/10/16 09:00:14;;;;;;;10.40;4.88;;;;;;;27.20;19.53;100841.75;6230595;22;20065;-68
2022/10/16 09:02:45;;;;;;;6.32;4.30;;;;;;;26.10;20.31;100845.91;6230958;22;20019;-67
2022/10/16 09:05:22;;;;;;;9.57;4.25;;;;;;;24.90;21.53;100841.56;6230787;22;20018;-67
2022/10/16 09:07:56;;;;;;;8.20;4.55;;;;;;;23.64;22.87;100842.78;6229396;22;20358;-68
2022/10/16 09:10:47;;;;;;;7.30;4.55;;;;;;;22.84;24.07;100840.44;6231097;22;20015;-69
2022/10/16 09:13:15;;;;;;;7.43;4.20;;;;;;;22.40;24.40;100840.41;6108092;23;20526;-69
2022/10/16 09:15:45;;;;;;;5.60;4.07;;;;;;;23.59;23.17;100844.28;6083147;23;20044;-68
2022/10/16 09:18:21;;;;;;;8.25;4.43;;;;;;;24.96;22.00;100841.75;6107779;23;20128;-69
2022/10/16 09:20:54;;;;;;;8.20;4.22;;;;;;;25.33;21.20;100843.00;6107772;23;20017;-69
2022/10/16 09:23:25;;;;;;;7.78;4.53;;;;;;;25.29;20.80;100836.19;6107892;23;20090;-68
2022/10/16 09:25:50;;;;;;;6.53;4.25;;;;;;;25.56;20.22;100830.28;6082417;23;20435;-68
2022/10/16 09:28:17;;;;;;;7.13;4.15;;;;;;;26.44;19.46;100837.31;6083184;23;20076;-68
2022/10/16 09:30:42;;;;;;;7.32;4.57;;;;;;;27.59;18.24;100827.75;6107598;23;20021;-68
2022/10/16 09:33:09;;;;;;;7.13;4.20;;;;;;;28.78;17.50;100835.41;6107957;23;20018;-68
2022/10/16 09:35:37;;;;;;;7.97;4.60;;;;;;;29.33;16.14;100833.66;6107892;23;20017;-66
2022/10/16 09:38:02;;;;;;;6.03;4.13;;;;;;;29.84;16.29;100837.72;6105894;23;20021;-66
2022/10/16 09:40:31;;;;;;;10.02;4.20;;;;;;;30.41;15.87;100835.56;6107341;23;20021;-67
2022/10/16 09:43:22;;;;;;;6.22;5.13;;;;;;;30.57;16.01;100843.47;6082895;23;20025;-68
2022/10/16 09:45:58;;;;;;;6.50;4.20;;;;;;;29.88;16.74;100840.91;6107344;23;20612;-70
2022/10/16 09:48:25;;;;;;;8.77;4.20;;;;;;;29.13;16.90;100826.13;6107528;23;20017;-67
2022/10/16 09:51:00;;;;;;;5.93;4.97;;;;;;;29.84;16.72;100826.72;6210446;22;20019;-67
2022/10/16 09:53:37;;;;;;;6.32;4.28;;;;;;;29.86;16.15;100824.63;6230145;22;20046;-67
2022/10/16 09:56:03;;;;;;;7.25;4.13;;;;;;;28.61;16.72;100820.22;6230093;22;20062;-66
2022/10/16 09:58:28;;;;;;;7.47;4.82;;;;;;;26.69;18.34;100815.03;6243724;22;20526;-66
2022/10/16 10:00:54;;;;;;;7.55;4.75;;;;;;;25.12;19.82;100823.63;6228746;22;20023;-67
2022/10/16 10:03:40;;;;;;;7.30;4.40;;;;;;;24.36;20.81;100810.41;6229895;22;20019;-67
2022/10/16 10:06:17;;;;;;;10.95;4.35;;;;;;;24.07;21.39;100822.63;6229595;22;20062;-67
2022/10/16 10:09:04;;;;;;;11.05;4.65;;;;;;;23.21;22.06;100818.41;6229013;22;20015;-67
2022/10/16 10:11:41;;;;;;;6.53;3.88;;;;;;;21.41;23.96;100814.22;6227647;22;20020;-66
2022/10/16 10:14:21;;;;;;;7.55;3.85;;;;;;;19.71;25.99;100805.03;6228783;22;20015;-67
2022/10/16 10:16:47;;;;;;;9.85;4.90;;;;;;;18.23;28.11;100814.50;6212615;22;20026;-65
2022/10/16 10:19:15;;;;;;;20.02;5.75;;;;;;;17.48;29.72;100821.72;6241349;22;20114;-66
2022/10/16 10:21:40;;;;;;;7.65;3.70;;;;;;;16.89;29.74;100803.13;6235239;22;20439;-66
2022/10/16 10:24:13;;;;;;;11.05;4.88;;;;;;;16.42;31.40;100810.34;6233050;22;20019;-67
2022/10/16 10:26:41;;;;;;;8.60;4.20;;;;;;;16.05;32.03;100809.59;6229428;22;20069;-66
2022/10/16 10:29:12;;;;;;;9.27;4.63;;;;;;;15.67;32.66;100808.94;6229980;22;20432;-67
2022/10/16 10:31:43;;;;;;;10.23;4.43;;;;;;;15.44;32.96;100811.47;6229912;22;20019;-68
2022/10/16 10:34:36;;;;;;;6.25;4.40;;;;;;;15.18;33.50;100820.56;6228579;22;20030;-68
2022/10/16 10:37:18;;;;;;;7.05;4.43;;;;;;;14.94;33.37;100817.78;6227255;22;20479;-69
2022/10/16 10:40:08;;;;;;;8.93;4.13;;;;;;;14.53;34.77;100813.50;6229548;22;20015;-69
2022/10/16 10:42:53;;;;;;;10.48;4.28;;;;;;;14.24;35.15;100816.41;6136451;23;20041;-67
2022/10/16 10:45:28;;;;;;;5.40;3.80;;;;;;;14.08;36.05;100812.13;6134632;23;20017;-74
2022/10/16 10:48:16;;;;;;;6.88;3.70;;;;;;;14.13;34.83;100804.59;6112047;23;20051;-74
2022/10/16 10:50:57;;;;;;;9.00;4.30;;;;;;;13.86;36.50;100811.84;6049765;23;20144;-72
2022/10/16 10:53:38;;;;;;;9.57;3.90;;;;;;;13.75;36.63;100800.97;6048293;23;20014;-73
2022/10/16 10:56:23;;;;;;;10.50;4.82;;;;;;;13.61;37.12;100801.00;6048362;23;20018;-74
2022/10/16 10:58:54;;;;;;;6.50;3.85;;;;;;;13.59;36.49;100802.91;6048479;23;20450;-73
2022/10/16 11:01:41;;;;;;;9.65;4.75;;;;;;;13.29;38.46;100795.94;6049201;23;20471;-75
2022/10/16 11:04:38;;;;;;;7.68;4.20;;;;;;;13.27;37.57;100791.63;6049212;23;20019;-71
2022/10/16 11:07:18;;;;;;;7.05;3.90;;;;;;;13.25;37.98;100797.06;5992036;23;20026;-72
2022/10/16 11:09:54;;;;;;;8.85;3.67;;;;;;;13.12;38.10;100803.28;5967989;23;20019;-72
2022/10/16 11:12:25;;;;;;;9.43;4.35;;;;;;;12.95;38.61;100801.66;5991349;23;20023;-73
2022/10/16 11:15:04;;;;;;;7.15;4.05;;;;;;;12.99;38.39;100800.50;5991528;23;20046;-67
2022/10/16 11:17:38;;;;;;;9.43;3.80;;;;;;;12.93;38.40;100799.09;5967668;23;20086;-72
2022/10/16 11:20:16;;;;;;;9.97;4.23;;;;;;;12.76;39.42;100801.06;6047436;23;20092;-68
2022/10/16 11:22:50;;;;;;;7.55;4.25;;;;;;;12.69;39.29;100793.44;6087745;23;20084;-73
2022/10/16 11:25:18;;;;;;;;;;;;;;;12.76;38.91;100791.22;6078930;23;20021;-70
2022/10/16 11:28:01;;;;;;;8.05;3.88;;;;;;;12.76;38.48;100795.72;6113768;23;19912;-70
2022/10/16 11:30:30;;;;;;;8.15;4.03;;;;;;;12.60;40.25;100793.16;6144702;23;20526;-70
2022/10/16 11:33:22;;;;;;;8.38;4.53;;;;;;;12.55;39.64;100787.22;6116757;23;20669;-69